createdAt,value
2022-08-22T00:03:10.387Z,15.37
2022-08-22T00:03:11.356Z,15.37
2022-08-22T00:03:30.318Z,15.23
2022-08-22T00:06:20.952Z,15.40
2022-08-22T00:09:23.277Z,15.93
2022-08-22T00:12:16.927Z,14.50
2022-08-22T00:15:06.399Z,15.37
2022-08-22T00:17:57.092Z,15.87
2022-08-22T00:20:46.450Z,15.17
2022-08-22T00:23:36.576Z,15.10
2022-08-22T00:26:30.409Z,15.00
2022-08-22T00:29:16.656Z,15.63
2022-08-22T00:32:10.313Z,14.67
2022-08-22T00:35:00.189Z,15.27
2022-08-22T00:37:46.716Z,16.00
2022-08-22T00:40:54.248Z,16.70
2022-08-22T00:44:18.466Z,17.07
2022-08-22T00:47:13.000Z,16.90
2022-08-22T00:50:29.090Z,17.47
2022-08-22T00:53:29.365Z,18.17
2022-08-22T00:56:35.277Z,18.43
2022-08-22T00:59:35.542Z,18.53
2022-08-22T01:02:33.056Z,20.30
2022-08-22T01:05:35.969Z,19.93
2022-08-22T01:08:40.284Z,21.07
2022-08-22T01:11:37.631Z,22.40
2022-08-22T01:14:34.289Z,21.03
2022-08-22T01:18:02.614Z,23.23
2022-08-22T01:21:16.135Z,21.40
2022-08-22T01:24:33.903Z,22.67
2022-08-22T01:28:11.236Z,22.67
2022-08-22T01:31:39.706Z,22.83
2022-08-22T01:34:57.906Z,22.70
2022-08-22T01:37:59.031Z,21.23
2022-08-22T01:41:12.982Z,20.60
2022-08-22T01:44:09.490Z,20.97
2022-08-22T01:46:59.896Z,21.27
2022-08-22T01:49:48.070Z,21.27
2022-08-22T01:52:38.975Z,20.80
2022-08-22T01:55:31.381Z,21.50
2022-08-22T01:58:19.122Z,21.53
2022-08-22T02:01:15.158Z,20.70
2022-08-22T02:04:05.763Z,20.13
2022-08-22T02:06:59.756Z,20.57
2022-08-22T02:09:53.437Z,20.50
2022-08-22T02:12:44.004Z,19.67
2022-08-22T02:15:37.109Z,24.63
2022-08-22T02:18:27.295Z,18.80
2022-08-22T02:21:17.136Z,18.60
2022-08-22T02:24:04.294Z,19.53
2022-08-22T02:27:04.793Z,17.80
2022-08-22T02:29:54.996Z,17.83
2022-08-22T02:32:50.545Z,21.10
2022-08-22T02:35:38.901Z,18.57
2022-08-22T02:38:29.127Z,20.53
2022-08-22T02:41:23.112Z,19.40
2022-08-22T02:44:24.156Z,19.20
2022-08-22T02:47:13.385Z,21.13
2022-08-22T02:50:07.089Z,19.97
2022-08-22T02:53:02.120Z,21.17
2022-08-22T02:55:54.653Z,19.70
2022-08-22T02:58:45.884Z,18.93
2022-08-22T03:01:42.568Z,18.50
2022-08-22T03:04:47.296Z,19.77
2022-08-22T03:07:43.098Z,18.80
2022-08-22T03:10:31.754Z,20.20
2022-08-22T03:13:20.256Z,23.70
2022-08-22T03:16:11.850Z,26.30
2022-08-22T03:19:04.593Z,22.60
2022-08-22T03:21:56.975Z,23.73
2022-08-22T03:24:45.504Z,24.10
2022-08-22T03:27:35.703Z,23.90
2022-08-22T03:30:22.973Z,26.33
2022-08-22T03:33:19.039Z,25.40
2022-08-22T03:36:10.772Z,25.83
2022-08-22T03:39:16.646Z,26.77
2022-08-22T03:42:16.014Z,27.27
2022-08-22T03:45:28.694Z,26.27
2022-08-22T03:48:39.422Z,25.43
2022-08-22T03:51:32.702Z,24.13
2022-08-22T03:54:51.720Z,23.30
2022-08-22T03:58:13.630Z,21.07
2022-08-22T04:01:50.297Z,21.00
2022-08-22T04:05:09.739Z,22.43
2022-08-22T04:08:37.454Z,21.87
2022-08-22T04:12:09.052Z,22.20
2022-08-22T04:15:18.500Z,21.10
2022-08-22T04:18:19.512Z,19.77
2022-08-22T04:21:30.733Z,19.63
2022-08-22T04:24:28.963Z,19.17
2022-08-22T04:27:22.118Z,18.13
2022-08-22T04:30:12.101Z,18.50
2022-08-22T04:33:06.602Z,19.17
2022-08-22T04:36:03.671Z,18.97
2022-08-22T04:38:53.878Z,18.83
2022-08-22T04:41:48.313Z,18.83
2022-08-22T04:44:39.750Z,18.73
2022-08-22T04:47:31.637Z,18.73
2022-08-22T04:50:21.238Z,20.40
2022-08-22T04:53:15.127Z,19.70
2022-08-22T04:56:07.824Z,19.17
2022-08-22T04:58:58.213Z,19.67
2022-08-22T05:01:46.814Z,19.77
2022-08-22T05:04:33.460Z,19.07
2022-08-22T05:07:20.880Z,18.43
2022-08-22T05:10:11.778Z,18.40
2022-08-22T05:13:00.517Z,18.57
2022-08-22T05:15:48.939Z,19.17
2022-08-22T05:18:36.626Z,20.37
2022-08-22T05:21:27.146Z,20.97
2022-08-22T05:24:15.541Z,20.50
2022-08-22T05:27:07.174Z,20.37
2022-08-22T05:29:53.820Z,20.80
2022-08-22T05:32:47.651Z,20.53
2022-08-22T05:35:37.753Z,21.73
2022-08-22T05:38:27.636Z,19.87
2022-08-22T05:41:13.240Z,20.87
2022-08-22T05:43:56.849Z,22.80
2022-08-22T05:46:43.329Z,23.43
2022-08-22T05:49:36.047Z,23.77
2022-08-22T05:52:34.794Z,21.00
2022-08-22T05:55:26.301Z,21.53
2022-08-22T05:58:36.990Z,21.87
2022-08-22T06:01:26.515Z,22.63
2022-08-22T06:04:17.457Z,22.60
2022-08-22T06:07:05.263Z,23.00
2022-08-22T06:10:09.585Z,23.20
2022-08-22T06:12:59.149Z,23.97
2022-08-22T06:15:49.750Z,23.77
2022-08-22T06:18:33.969Z,21.30
2022-08-22T06:21:22.273Z,20.07
2022-08-22T06:24:10.785Z,20.80
2022-08-22T06:26:58.013Z,20.27
2022-08-22T06:29:46.113Z,19.73
2022-08-22T06:32:58.921Z,19.93
2022-08-22T06:35:54.407Z,19.50
2022-08-22T06:38:55.551Z,19.63
2022-08-22T06:41:47.548Z,19.30
2022-08-22T06:44:33.961Z,21.37
2022-08-22T06:47:20.468Z,20.90
2022-08-22T06:50:13.919Z,19.47
2022-08-22T06:53:02.419Z,20.37
2022-08-22T06:55:50.639Z,19.73
2022-08-22T06:58:40.322Z,20.67
2022-08-22T07:01:26.425Z,19.93
2022-08-22T07:04:11.358Z,17.53
2022-08-22T07:06:57.016Z,17.00
2022-08-22T07:09:42.473Z,17.60
2022-08-22T07:12:30.720Z,18.50
2022-08-22T07:15:34.478Z,16.43
2022-08-22T07:18:19.461Z,15.30
2022-08-22T07:21:08.283Z,16.43
2022-08-22T07:23:53.214Z,16.73
2022-08-22T07:26:45.781Z,18.17
2022-08-22T07:29:36.577Z,17.67
2022-08-22T07:32:28.991Z,17.23
2022-08-22T07:35:16.553Z,16.67
2022-08-22T07:38:08.143Z,16.27
2022-08-22T07:41:02.793Z,14.83
2022-08-22T07:43:51.640Z,14.67
2022-08-22T07:46:38.323Z,15.60
2022-08-22T07:49:27.186Z,15.33
2022-08-22T07:52:13.745Z,14.00
2022-08-22T07:55:02.891Z,14.83
2022-08-22T07:57:50.649Z,14.70
2022-08-22T08:00:34.479Z,14.53
2022-08-22T08:03:18.504Z,13.87
2022-08-22T08:06:04.036Z,14.40
2022-08-22T08:08:47.282Z,14.03
2022-08-22T08:11:35.620Z,12.67
2022-08-22T08:14:22.026Z,13.43
2022-08-22T08:20:13.993Z,13.67
2022-08-22T08:23:00.186Z,13.63
2022-08-22T08:25:54.030Z,13.87
2022-08-22T08:28:42.647Z,13.20
2022-08-22T08:31:32.758Z,14.33
2022-08-22T08:34:23.707Z,27.27
2022-08-22T08:37:15.550Z,14.73
2022-08-22T08:40:02.804Z,12.83
2022-08-22T08:43:29.956Z,12.83
2022-08-22T08:46:35.941Z,13.10
2022-08-22T08:49:44.969Z,13.53
2022-08-22T08:53:07.273Z,14.30
2022-08-22T08:55:59.601Z,13.13
2022-08-22T08:58:50.961Z,12.57
2022-08-22T09:01:53.354Z,12.43
2022-08-22T09:05:15.708Z,13.17
2022-08-22T09:08:27.691Z,12.40
2022-08-22T09:11:32.329Z,14.10
2022-08-22T09:14:50.609Z,12.97
2022-08-22T09:18:10.703Z,13.30
2022-08-22T09:21:35.296Z,13.13
2022-08-22T09:24:38.962Z,12.90
2022-08-22T09:27:34.215Z,11.77
2022-08-22T09:33:31.445Z,12.30
2022-08-22T09:36:21.281Z,11.53
2022-08-22T09:39:15.151Z,16.67
2022-08-22T09:40:15.634Z,11.73
2022-08-22T09:42:08.190Z,10.83
2022-08-22T09:45:00.690Z,10.60
2022-08-22T09:47:54.170Z,10.52
2022-08-22T09:50:54.674Z,9.65
2022-08-22T09:53:53.106Z,9.93
2022-08-22T09:56:40.376Z,10.00
2022-08-22T09:59:33.570Z,10.02
2022-08-22T10:02:31.676Z,9.65
2022-08-22T10:05:35.183Z,9.65
2022-08-22T10:08:38.381Z,8.55
2022-08-22T10:11:29.142Z,8.65
2022-08-22T10:14:22.339Z,8.77
2022-08-22T10:17:21.722Z,9.73
2022-08-22T10:20:21.263Z,10.20
2022-08-22T10:23:15.943Z,9.85
2022-08-22T10:26:13.205Z,9.20
2022-08-22T10:29:30.448Z,9.75
2022-08-22T10:32:27.521Z,10.45
2022-08-22T10:35:21.107Z,10.55
2022-08-22T10:38:10.768Z,11.10
2022-08-22T10:41:03.522Z,10.53
2022-08-22T10:44:01.237Z,11.30
2022-08-22T10:46:54.997Z,10.67
2022-08-22T10:49:46.642Z,11.57
2022-08-22T10:52:47.453Z,11.00
2022-08-22T10:55:30.854Z,10.80
2022-08-22T10:58:18.791Z,10.45
2022-08-22T11:01:37.998Z,9.85
2022-08-22T11:04:19.892Z,10.77
2022-08-22T11:07:39.482Z,9.25
2022-08-22T11:10:36.134Z,9.63
2022-08-22T11:13:42.287Z,10.80
2022-08-22T11:16:42.683Z,10.70
2022-08-22T11:19:45.097Z,10.87
2022-08-22T11:22:33.988Z,10.83
2022-08-22T11:25:41.195Z,11.23
2022-08-22T11:29:13.587Z,12.07
2022-08-22T11:32:07.928Z,11.90
2022-08-22T11:34:58.430Z,12.13
2022-08-22T11:37:59.047Z,13.97
2022-08-22T11:40:48.942Z,12.57
2022-08-22T11:43:44.725Z,11.57
2022-08-22T11:46:33.631Z,12.03
2022-08-22T11:49:33.726Z,13.97
2022-08-22T11:52:38.544Z,11.87
2022-08-22T11:55:32.780Z,12.43
2022-08-22T11:58:29.044Z,13.30
2022-08-22T12:01:17.139Z,12.20
2022-08-22T12:04:10.310Z,11.77
2022-08-22T12:07:10.794Z,11.60
2022-08-22T12:09:59.725Z,13.17
2022-08-22T12:12:56.350Z,12.73
2022-08-22T12:15:53.950Z,12.57
2022-08-22T12:19:01.926Z,12.43
2022-08-22T12:22:12.728Z,12.67
2022-08-22T12:25:09.774Z,12.50
2022-08-22T12:28:05.056Z,14.53
2022-08-22T12:31:02.232Z,12.57
2022-08-22T12:34:06.534Z,12.33
2022-08-22T12:37:04.964Z,12.10
2022-08-22T12:40:34.707Z,11.77
2022-08-22T12:43:39.889Z,12.30
2022-08-22T12:46:46.559Z,11.10
2022-08-22T12:49:44.902Z,11.97
2022-08-22T12:52:55.245Z,12.60
2022-08-22T12:56:05.322Z,12.43
2022-08-22T12:59:10.099Z,12.57
2022-08-22T13:02:00.857Z,13.03
2022-08-22T13:04:48.199Z,13.70
2022-08-22T13:07:35.906Z,12.60
2022-08-22T13:10:46.677Z,12.90
2022-08-22T13:13:38.710Z,13.03
2022-08-22T13:16:24.675Z,13.20
2022-08-22T13:19:14.538Z,14.13
2022-08-22T13:22:01.505Z,14.50
2022-08-22T13:24:51.818Z,15.33
2022-08-22T13:27:51.318Z,15.00
2022-08-22T13:30:37.911Z,15.37
2022-08-22T13:33:27.258Z,17.00
2022-08-22T13:36:18.293Z,16.73
2022-08-22T13:39:08.610Z,16.13
2022-08-22T13:41:59.106Z,15.47
2022-08-22T13:44:46.679Z,15.10
2022-08-22T13:47:31.776Z,14.03
2022-08-22T13:50:20.179Z,14.53
2022-08-22T13:53:11.698Z,13.20
2022-08-22T13:56:02.705Z,13.27
2022-08-22T13:58:48.945Z,14.60
2022-08-22T14:01:44.108Z,16.40
2022-08-22T14:04:35.857Z,17.43
2022-08-22T14:07:30.526Z,18.03
2022-08-22T14:10:23.821Z,16.93
2022-08-22T14:13:49.571Z,17.00
2022-08-22T14:16:38.008Z,17.77
2022-08-22T14:19:28.240Z,20.57
2022-08-22T14:22:17.065Z,17.70
2022-08-22T14:25:03.735Z,17.00
2022-08-22T14:28:00.813Z,17.30
2022-08-22T14:31:01.066Z,18.20
2022-08-22T14:33:49.978Z,18.27
2022-08-22T14:36:45.750Z,45.00
2022-08-22T14:39:34.864Z,19.80
2022-08-22T14:42:23.953Z,19.80
2022-08-22T14:45:16.801Z,21.63
2022-08-22T14:48:30.508Z,18.60
2022-08-22T14:51:18.840Z,17.00
2022-08-22T14:54:21.150Z,17.83
2022-08-22T14:57:10.375Z,18.57
2022-08-22T14:59:54.233Z,18.37
2022-08-22T15:02:38.883Z,19.27
2022-08-22T15:05:24.019Z,19.60
2022-08-22T15:08:10.309Z,19.20
2022-08-22T15:11:08.875Z,20.07
2022-08-22T15:14:01.103Z,19.67
2022-08-22T15:16:51.883Z,19.90
2022-08-22T15:19:41.195Z,20.00
2022-08-22T15:22:27.878Z,33.00
2022-08-22T15:25:17.077Z,20.73
2022-08-22T15:28:05.217Z,19.73
2022-08-22T15:31:03.815Z,20.13
2022-08-22T15:33:49.851Z,18.73
2022-08-22T15:36:34.521Z,19.07
2022-08-22T15:39:33.208Z,17.97
2022-08-22T15:42:27.248Z,18.87
2022-08-22T15:45:20.965Z,18.07
2022-08-22T15:48:10.163Z,16.97
2022-08-22T15:50:59.363Z,18.13
2022-08-22T15:54:16.041Z,16.97
2022-08-22T15:57:16.739Z,17.60
2022-08-22T16:00:03.110Z,18.17
2022-08-22T16:03:01.238Z,17.63
2022-08-22T16:05:55.581Z,18.27
2022-08-22T16:08:55.412Z,18.47
2022-08-22T16:11:40.841Z,18.73
2022-08-22T16:14:26.107Z,18.77
2022-08-22T16:17:42.039Z,17.87
2022-08-22T16:20:51.051Z,19.20
2022-08-22T16:24:09.539Z,18.00
2022-08-22T16:26:54.771Z,18.17
2022-08-22T16:29:42.809Z,18.33
2022-08-22T16:32:28.917Z,17.37
2022-08-22T16:35:13.023Z,18.40
2022-08-22T16:37:56.637Z,18.37
2022-08-22T16:40:48.855Z,18.87
2022-08-22T16:43:34.211Z,18.60
2022-08-22T16:46:36.473Z,19.73
2022-08-22T16:49:30.503Z,19.00
2022-08-22T16:53:02.046Z,19.13
2022-08-22T16:55:50.896Z,19.30
2022-08-22T16:59:06.132Z,20.83
2022-08-22T17:02:42.952Z,19.60
2022-08-22T17:05:51.150Z,19.57
2022-08-22T17:08:53.892Z,20.03
2022-08-22T17:11:48.414Z,20.30
2022-08-22T17:14:49.210Z,20.90
2022-08-22T17:17:41.492Z,21.87
2022-08-22T17:20:44.614Z,21.73
2022-08-22T17:23:35.962Z,21.77
2022-08-22T17:26:32.558Z,21.43
2022-08-22T17:29:26.207Z,23.07
2022-08-22T17:32:22.239Z,22.17
2022-08-22T17:35:17.527Z,22.97
2022-08-22T17:38:09.395Z,22.43
2022-08-22T17:41:01.607Z,24.40
2022-08-22T17:43:55.936Z,24.73
2022-08-22T17:46:47.205Z,23.40
2022-08-22T17:49:46.566Z,23.47
2022-08-22T17:52:35.814Z,25.07
2022-08-22T17:55:23.275Z,23.77
2022-08-22T17:58:13.691Z,22.33
2022-08-22T18:01:37.763Z,23.07
2022-08-22T18:04:28.573Z,23.07
2022-08-22T18:07:30.358Z,23.80
2022-08-22T18:10:23.369Z,24.30
2022-08-22T18:13:11.167Z,23.70
2022-08-22T18:15:58.783Z,24.27
2022-08-22T18:18:49.368Z,25.50
2022-08-22T18:21:36.664Z,23.97
2022-08-22T18:24:31.267Z,25.27
2022-08-22T18:27:34.153Z,27.50
2022-08-22T18:30:20.846Z,25.60
2022-08-22T18:33:09.025Z,26.07
2022-08-22T18:35:56.475Z,25.50
2022-08-22T18:38:50.675Z,29.33
2022-08-22T18:41:39.970Z,25.37
2022-08-22T18:44:29.833Z,25.87
2022-08-22T18:47:17.838Z,26.87
2022-08-22T18:50:03.882Z,27.30
2022-08-22T18:52:46.944Z,28.60
2022-08-22T18:55:56.217Z,28.63
2022-08-22T18:59:05.304Z,27.47
2022-08-22T19:02:01.160Z,28.53
2022-08-22T19:05:08.770Z,27.03
2022-08-22T19:08:19.322Z,26.33
2022-08-22T19:11:17.527Z,26.37
2022-08-22T19:14:25.607Z,27.13
2022-08-22T19:17:40.060Z,26.80
2022-08-22T19:20:47.009Z,25.73
2022-08-22T19:23:45.551Z,26.43
2022-08-22T19:26:43.893Z,24.60
2022-08-22T19:29:55.389Z,23.20
2022-08-22T19:33:03.847Z,23.40
2022-08-22T19:36:06.169Z,20.97
2022-08-22T19:39:00.573Z,21.33
2022-08-22T19:41:52.945Z,21.10
2022-08-22T19:44:42.306Z,22.43
2022-08-22T19:47:34.910Z,20.40
2022-08-22T19:50:30.876Z,20.83
2022-08-22T19:53:33.728Z,20.50
2022-08-22T19:56:30.024Z,20.30
2022-08-22T19:59:22.735Z,20.60
2022-08-22T20:02:20.914Z,20.67
2022-08-22T20:05:21.466Z,21.37
2022-08-22T20:08:22.764Z,20.70
2022-08-22T20:11:29.409Z,20.00
2022-08-22T20:14:30.693Z,19.90
2022-08-22T20:17:35.370Z,20.50
2022-08-22T20:20:57.149Z,20.33
2022-08-22T20:23:40.457Z,20.50
2022-08-22T20:26:23.661Z,21.70
2022-08-22T20:29:08.311Z,20.87
2022-08-22T20:31:58.064Z,20.47
2022-08-22T20:34:42.735Z,21.00
2022-08-22T20:37:56.164Z,21.03
2022-08-22T20:40:56.971Z,20.73
2022-08-22T20:43:45.508Z,20.47
2022-08-22T20:46:44.370Z,21.23
2022-08-22T20:49:33.940Z,20.27
2022-08-22T20:52:27.030Z,19.57
2022-08-22T20:55:15.799Z,19.60
2022-08-22T20:58:05.180Z,20.30
2022-08-22T21:00:50.860Z,20.30
2022-08-22T21:03:40.927Z,19.00
2022-08-22T21:06:32.506Z,20.80
2022-08-22T21:09:39.719Z,20.47
2022-08-22T21:12:26.371Z,21.70
2022-08-22T21:15:10.714Z,19.83
2022-08-22T21:17:53.823Z,21.07
2022-08-22T21:20:39.024Z,21.73
2022-08-22T21:23:22.246Z,22.13
2022-08-22T21:26:09.633Z,22.07
2022-08-22T21:29:00.016Z,21.30
2022-08-22T21:31:46.169Z,21.93
2022-08-22T21:34:32.721Z,21.60
2022-08-22T21:37:18.827Z,20.43
2022-08-22T21:40:07.946Z,21.77
2022-08-22T21:43:05.715Z,20.30
2022-08-22T21:45:50.209Z,21.87
2022-08-22T21:48:40.322Z,22.27
2022-08-22T21:51:25.572Z,21.67
2022-08-22T21:54:33.223Z,20.87
2022-08-22T21:57:35.790Z,21.37
2022-08-22T22:00:41.303Z,22.20
2022-08-22T22:03:38.840Z,20.20
2022-08-22T22:06:22.003Z,20.90
2022-08-22T22:09:05.191Z,20.70
2022-08-22T22:11:48.311Z,21.27
2022-08-22T22:14:31.424Z,21.10
2022-08-22T22:17:14.605Z,21.97
2022-08-22T22:19:59.088Z,22.10
2022-08-22T22:22:46.090Z,21.37
2022-08-22T22:25:40.157Z,20.97
2022-08-22T22:28:29.666Z,21.87
2022-08-22T22:31:12.784Z,23.13
2022-08-22T22:33:55.953Z,22.63
2022-08-22T22:36:41.955Z,22.50
2022-08-22T22:39:25.051Z,22.20
2022-08-22T22:42:08.759Z,22.23
2022-08-22T22:44:51.823Z,22.23
2022-08-22T22:47:36.363Z,23.37
2022-08-22T22:50:19.635Z,23.20
2022-08-22T22:53:04.150Z,24.13
2022-08-22T22:55:59.577Z,22.40
2022-08-22T22:58:44.064Z,22.67
2022-08-22T23:01:28.066Z,23.87
2022-08-22T23:04:11.057Z,22.60
2022-08-22T23:06:54.209Z,22.80
2022-08-22T23:09:44.565Z,22.97
2022-08-22T23:12:28.172Z,23.90
2022-08-22T23:15:12.486Z,22.60
2022-08-22T23:17:55.782Z,22.17
2022-08-22T23:20:38.914Z,23.47
2022-08-22T23:23:22.037Z,22.70
2022-08-22T23:26:06.995Z,23.73
2022-08-22T23:28:50.236Z,22.20
2022-08-22T23:31:35.658Z,23.13
2022-08-22T23:34:22.777Z,21.33
2022-08-22T23:37:08.815Z,21.63
2022-08-22T23:39:52.130Z,21.60
2022-08-22T23:42:36.985Z,22.83
2022-08-22T23:45:21.595Z,22.40
2022-08-22T23:48:05.109Z,21.87
2022-08-22T23:50:48.164Z,21.70
2022-08-22T23:53:31.344Z,22.20
2022-08-22T23:56:19.662Z,22.77
2022-08-22T23:59:08.147Z,23.10
